sensor_id;sensor_type;location;lat;lon;timestamp;temperature;humidity
66506;HTU21D;53332;51.082;5.832;2023-06-10T00:00:10;23.22;65.43
66506;HTU21D;53332;51.082;5.832;2023-06-10T00:02:42;23.16;65.41
66506;HTU21D;53332;51.082;5.832;2023-06-10T00:05:23;23.11;65.59
66506;HTU21D;53332;51.082;5.832;2023-06-10T00:07:49;23.07;65.85
66506;HTU21D;53332;51.082;5.832;2023-06-10T00:10:21;23.02;66.18
66506;HTU21D;53332;51.082;5.832;2023-06-10T00:15:52;22.95;66.47
66506;HTU21D;53332;51.082;5.832;2023-06-10T00:18:21;22.90;66.57
66506;HTU21D;53332;51.082;5.832;2023-06-10T00:20:47;22.86;66.71
66506;HTU21D;53332;51.082;5.832;2023-06-10T00:23:14;22.80;67.05
66506;HTU21D;53332;51.082;5.832;2023-06-10T00:25:40;22.77;67.10
66506;HTU21D;53332;51.082;5.832;2023-06-10T00:28:11;22.69;67.51
66506;HTU21D;53332;51.082;5.832;2023-06-10T00:30:58;22.63;67.92
66506;HTU21D;53332;51.082;5.832;2023-06-10T00:33:36;22.57;68.06
66506;HTU21D;53332;51.082;5.832;2023-06-10T00:36:04;22.54;68.28
66506;HTU21D;53332;51.082;5.832;2023-06-10T00:38:40;22.47;68.65
66506;HTU21D;53332;51.082;5.832;2023-06-10T00:41:24;22.42;69.16
66506;HTU21D;53332;51.082;5.832;2023-06-10T00:44:07;22.32;69.83
66506;HTU21D;53332;51.082;5.832;2023-06-10T00:47:08;22.22;70.76
66506;HTU21D;53332;51.082;5.832;2023-06-10T00:49:59;22.18;71.00
66506;HTU21D;53332;51.082;5.832;2023-06-10T00:56:11;22.04;71.16
66506;HTU21D;53332;51.082;5.832;2023-06-10T00:58:57;21.96;71.67
66506;HTU21D;53332;51.082;5.832;2023-06-10T01:01:32;21.92;71.87
66506;HTU21D;53332;51.082;5.832;2023-06-10T01:10:38;21.75;73.29
66506;HTU21D;53332;51.082;5.832;2023-06-10T01:13:16;21.72;73.53
66506;HTU21D;53332;51.082;5.832;2023-06-10T01:19:23;21.66;74.09
66506;HTU21D;53332;51.082;5.832;2023-06-10T01:22:30;21.64;74.32
66506;HTU21D;53332;51.082;5.832;2023-06-10T01:38:26;21.48;75.28
66506;HTU21D;53332;51.082;5.832;2023-06-10T01:41:43;21.47;75.47
66506;HTU21D;53332;51.082;5.832;2023-06-10T01:44:31;21.42;75.67
66506;HTU21D;53332;51.082;5.832;2023-06-10T01:47:26;21.40;75.99
66506;HTU21D;53332;51.082;5.832;2023-06-10T01:53:37;21.35;75.95
66506;HTU21D;53332;51.082;5.832;2023-06-10T01:56:26;21.29;76.28
66506;HTU21D;53332;51.082;5.832;2023-06-10T02:08:34;21.19;77.27
66506;HTU21D;53332;51.082;5.832;2023-06-10T02:11:01;21.18;77.34
66506;HTU21D;53332;51.082;5.832;2023-06-10T02:13:46;21.15;77.47
66506;HTU21D;53332;51.082;5.832;2023-06-10T02:20:08;21.11;77.56
66506;HTU21D;53332;51.082;5.832;2023-06-10T02:22:48;21.08;77.85
66506;HTU21D;53332;51.082;5.832;2023-06-10T02:39:17;20.92;78.53
66506;HTU21D;53332;51.082;5.832;2023-06-10T02:45:37;20.86;78.86
66506;HTU21D;53332;51.082;5.832;2023-06-10T02:48:27;20.85;78.83
66506;HTU21D;53332;51.082;5.832;2023-06-10T02:51:03;20.84;78.89
66506;HTU21D;53332;51.082;5.832;2023-06-10T02:53:47;20.77;79.16
66506;HTU21D;53332;51.082;5.832;2023-06-10T02:56:35;20.72;79.19
66506;HTU21D;53332;51.082;5.832;2023-06-10T02:59:01;20.69;79.28
66506;HTU21D;53332;51.082;5.832;2023-06-10T03:01:27;20.64;79.49
66506;HTU21D;53332;51.082;5.832;2023-06-10T03:03:53;20.61;79.56
66506;HTU21D;53332;51.082;5.832;2023-06-10T03:06:21;20.60;79.53
66506;HTU21D;53332;51.082;5.832;2023-06-10T03:08:49;20.60;79.66
66506;HTU21D;53332;51.082;5.832;2023-06-10T03:11:15;20.59;79.58
66506;HTU21D;53332;51.082;5.832;2023-06-10T03:13:44;20.58;79.46
66506;HTU21D;53332;51.082;5.832;2023-06-10T03:16:11;20.54;79.59
66506;HTU21D;53332;51.082;5.832;2023-06-10T03:18:38;20.51;79.76
66506;HTU21D;53332;51.082;5.832;2023-06-10T03:21:03;20.49;79.88
66506;HTU21D;53332;51.082;5.832;2023-06-10T03:23:29;20.47;80.04
66506;HTU21D;53332;51.082;5.832;2023-06-10T03:25:54;20.45;80.11
66506;HTU21D;53332;51.082;5.832;2023-06-10T03:28:20;20.40;80.36
66506;HTU21D;53332;51.082;5.832;2023-06-10T03:30:47;20.35;80.47
66506;HTU21D;53332;51.082;5.832;2023-06-10T03:33:13;20.31;80.68
66506;HTU21D;53332;51.082;5.832;2023-06-10T03:35:39;20.31;80.69
66506;HTU21D;53332;51.082;5.832;2023-06-10T03:38:05;20.33;80.65
66506;HTU21D;53332;51.082;5.832;2023-06-10T03:40:31;20.34;80.69
66506;HTU21D;53332;51.082;5.832;2023-06-10T03:42:57;20.32;80.72
66506;HTU21D;53332;51.082;5.832;2023-06-10T03:45:23;20.30;80.91
66506;HTU21D;53332;51.082;5.832;2023-06-10T03:47:49;20.28;81.00
66506;HTU21D;53332;51.082;5.832;2023-06-10T03:50:16;20.27;81.16
66506;HTU21D;53332;51.082;5.832;2023-06-10T03:52:42;20.25;81.41
66506;HTU21D;53332;51.082;5.832;2023-06-10T03:55:07;20.25;81.76
66506;HTU21D;53332;51.082;5.832;2023-06-10T03:57:33;20.26;81.97
66506;HTU21D;53332;51.082;5.832;2023-06-10T03:59:59;20.29;82.02
66506;HTU21D;53332;51.082;5.832;2023-06-10T04:02:24;20.27;82.04
66506;HTU21D;53332;51.082;5.832;2023-06-10T04:04:50;20.27;81.91
66506;HTU21D;53332;51.082;5.832;2023-06-10T04:07:16;20.29;81.57
66506;HTU21D;53332;51.082;5.832;2023-06-10T04:09:44;20.32;81.38
66506;HTU21D;53332;51.082;5.832;2023-06-10T04:12:10;20.34;81.23
66506;HTU21D;53332;51.082;5.832;2023-06-10T04:14:36;20.35;81.21
66506;HTU21D;53332;51.082;5.832;2023-06-10T04:17:04;20.34;81.33
66506;HTU21D;53332;51.082;5.832;2023-06-10T04:19:32;20.34;82.18
66506;HTU21D;53332;51.082;5.832;2023-06-10T04:21:57;20.31;82.71
66506;HTU21D;53332;51.082;5.832;2023-06-10T04:24:26;20.40;82.92
66506;HTU21D;53332;51.082;5.832;2023-06-10T04:26:51;20.39;83.07
66506;HTU21D;53332;51.082;5.832;2023-06-10T04:29:17;20.40;82.85
66506;HTU21D;53332;51.082;5.832;2023-06-10T04:31:45;20.39;82.79
66506;HTU21D;53332;51.082;5.832;2023-06-10T04:34:12;20.37;82.80
66506;HTU21D;53332;51.082;5.832;2023-06-10T04:36:40;20.34;83.09
66506;HTU21D;53332;51.082;5.832;2023-06-10T04:39:06;20.30;83.45
66506;HTU21D;53332;51.082;5.832;2023-06-10T04:41:32;20.28;83.85
66506;HTU21D;53332;51.082;5.832;2023-06-10T04:43:59;20.30;84.18
66506;HTU21D;53332;51.082;5.832;2023-06-10T04:46:25;20.31;84.16
66506;HTU21D;53332;51.082;5.832;2023-06-10T04:48:51;20.35;84.16
66506;HTU21D;53332;51.082;5.832;2023-06-10T04:51:16;20.41;83.84
66506;HTU21D;53332;51.082;5.832;2023-06-10T04:53:42;20.46;83.78
66506;HTU21D;53332;51.082;5.832;2023-06-10T04:56:08;20.53;83.40
66506;HTU21D;53332;51.082;5.832;2023-06-10T04:58:34;20.58;83.28
66506;HTU21D;53332;51.082;5.832;2023-06-10T05:01:02;20.62;83.29
66506;HTU21D;53332;51.082;5.832;2023-06-10T05:03:31;20.69;83.50
66506;HTU21D;53332;51.082;5.832;2023-06-10T05:05:59;20.77;83.34
66506;HTU21D;53332;51.082;5.832;2023-06-10T05:08:25;20.85;83.10
66506;HTU21D;53332;51.082;5.832;2023-06-10T05:10:50;20.92;82.85
66506;HTU21D;53332;51.082;5.832;2023-06-10T05:13:19;20.99;82.74
66506;HTU21D;53332;51.082;5.832;2023-06-10T05:15:45;21.04;82.48
66506;HTU21D;53332;51.082;5.832;2023-06-10T05:18:11;21.08;82.64
66506;HTU21D;53332;51.082;5.832;2023-06-10T05:20:52;21.17;83.13
66506;HTU21D;53332;51.082;5.832;2023-06-10T05:23:19;21.24;82.87
66506;HTU21D;53332;51.082;5.832;2023-06-10T05:25:45;21.33;82.55
66506;HTU21D;53332;51.082;5.832;2023-06-10T05:28:11;21.39;82.20
66506;HTU21D;53332;51.082;5.832;2023-06-10T05:30:36;21.45;82.16
66506;HTU21D;53332;51.082;5.832;2023-06-10T05:33:03;21.53;82.39
66506;HTU21D;53332;51.082;5.832;2023-06-10T05:35:28;21.60;82.07
66506;HTU21D;53332;51.082;5.832;2023-06-10T05:37:54;21.67;81.85
66506;HTU21D;53332;51.082;5.832;2023-06-10T05:40:20;21.74;80.62
66506;HTU21D;53332;51.082;5.832;2023-06-10T05:42:48;21.82;80.50
66506;HTU21D;53332;51.082;5.832;2023-06-10T05:45:13;21.89;80.14
66506;HTU21D;53332;51.082;5.832;2023-06-10T05:47:39;21.96;79.83
66506;HTU21D;53332;51.082;5.832;2023-06-10T05:50:08;22.02;79.46
66506;HTU21D;53332;51.082;5.832;2023-06-10T05:52:36;22.09;79.22
66506;HTU21D;53332;51.082;5.832;2023-06-10T05:55:03;22.18;78.81
66506;HTU21D;53332;51.082;5.832;2023-06-10T05:57:29;22.29;78.47
66506;HTU21D;53332;51.082;5.832;2023-06-10T05:59:55;22.39;77.99
66506;HTU21D;53332;51.082;5.832;2023-06-10T06:02:21;22.48;76.90
66506;HTU21D;53332;51.082;5.832;2023-06-10T06:04:46;22.58;76.47
66506;HTU21D;53332;51.082;5.832;2023-06-10T06:07:12;22.68;76.09
66506;HTU21D;53332;51.082;5.832;2023-06-10T06:09:38;22.79;75.50
66506;HTU21D;53332;51.082;5.832;2023-06-10T06:12:03;22.83;73.03
66506;HTU21D;53332;51.082;5.832;2023-06-10T06:14:31;22.90;72.97
66506;HTU21D;53332;51.082;5.832;2023-06-10T06:16:57;22.97;72.28
66506;HTU21D;53332;51.082;5.832;2023-06-10T06:19:23;23.05;71.99
66506;HTU21D;53332;51.082;5.832;2023-06-10T06:21:48;23.09;71.48
66506;HTU21D;53332;51.082;5.832;2023-06-10T06:24:15;23.20;70.79
66506;HTU21D;53332;51.082;5.832;2023-06-10T06:26:41;23.23;70.64
66506;HTU21D;53332;51.082;5.832;2023-06-10T06:29:07;23.32;71.30
66506;HTU21D;53332;51.082;5.832;2023-06-10T06:31:32;23.45;70.74
66506;HTU21D;53332;51.082;5.832;2023-06-10T06:33:58;23.59;70.87
66506;HTU21D;53332;51.082;5.832;2023-06-10T06:36:23;23.74;69.95
66506;HTU21D;53332;51.082;5.832;2023-06-10T06:38:49;23.90;69.30
66506;HTU21D;53332;51.082;5.832;2023-06-10T06:41:15;24.09;68.33
66506;HTU21D;53332;51.082;5.832;2023-06-10T06:43:40;24.31;68.23
66506;HTU21D;53332;51.082;5.832;2023-06-10T06:46:07;24.51;67.09
66506;HTU21D;53332;51.082;5.832;2023-06-10T06:48:36;24.75;64.87
66506;HTU21D;53332;51.082;5.832;2023-06-10T06:51:04;25.04;64.58
66506;HTU21D;53332;51.082;5.832;2023-06-10T06:53:30;25.35;64.37
66506;HTU21D;53332;51.082;5.832;2023-06-10T06:55:55;25.64;62.98
66506;HTU21D;53332;51.082;5.832;2023-06-10T06:58:21;25.93;60.57
66506;HTU21D;53332;51.082;5.832;2023-06-10T07:00:46;26.21;59.06
66506;HTU21D;53332;51.082;5.832;2023-06-10T07:03:12;26.52;57.61
66506;HTU21D;53332;51.082;5.832;2023-06-10T07:05:38;26.80;55.61
66506;HTU21D;53332;51.082;5.832;2023-06-10T07:08:04;27.13;55.44
66506;HTU21D;53332;51.082;5.832;2023-06-10T07:10:29;27.46;54.27
66506;HTU21D;53332;51.082;5.832;2023-06-10T07:12:55;27.78;52.38
66506;HTU21D;53332;51.082;5.832;2023-06-10T07:15:21;28.14;50.42
66506;HTU21D;53332;51.082;5.832;2023-06-10T07:17:46;28.50;49.78
66506;HTU21D;53332;51.082;5.832;2023-06-10T07:20:12;28.89;49.44
66506;HTU21D;53332;51.082;5.832;2023-06-10T07:22:40;29.23;48.56
66506;HTU21D;53332;51.082;5.832;2023-06-10T07:25:06;29.57;46.72
66506;HTU21D;53332;51.082;5.832;2023-06-10T07:27:32;29.87;45.57
66506;HTU21D;53332;51.082;5.832;2023-06-10T07:29:58;30.05;43.43
66506;HTU21D;53332;51.082;5.832;2023-06-10T07:32:23;30.13;42.03
66506;HTU21D;53332;51.082;5.832;2023-06-10T07:34:50;30.12;41.10
66506;HTU21D;53332;51.082;5.832;2023-06-10T07:37:16;30.00;40.62
66506;HTU21D;53332;51.082;5.832;2023-06-10T07:39:41;30.01;40.96
66506;HTU21D;53332;51.082;5.832;2023-06-10T07:42:08;30.24;41.63
66506;HTU21D;53332;51.082;5.832;2023-06-10T07:44:34;30.51;41.73
66506;HTU21D;53332;51.082;5.832;2023-06-10T07:46:59;30.82;42.19
66506;HTU21D;53332;51.082;5.832;2023-06-10T07:49:25;31.12;41.23
66506;HTU21D;53332;51.082;5.832;2023-06-10T07:51:50;31.31;40.46
66506;HTU21D;53332;51.082;5.832;2023-06-10T07:54:16;31.48;40.06
66506;HTU21D;53332;51.082;5.832;2023-06-10T07:56:41;31.52;39.98
66506;HTU21D;53332;51.082;5.832;2023-06-10T07:59:07;31.46;40.21
66506;HTU21D;53332;51.082;5.832;2023-06-10T08:01:33;31.45;40.00
66506;HTU21D;53332;51.082;5.832;2023-06-10T08:03:58;31.35;38.70
66506;HTU21D;53332;51.082;5.832;2023-06-10T08:06:24;31.31;39.23
66506;HTU21D;53332;51.082;5.832;2023-06-10T08:08:49;31.18;39.40
66506;HTU21D;53332;51.082;5.832;2023-06-10T08:11:15;30.94;38.42
66506;HTU21D;53332;51.082;5.832;2023-06-10T08:13:41;30.86;39.31
66506;HTU21D;53332;51.082;5.832;2023-06-10T08:16:06;30.89;39.75
66506;HTU21D;53332;51.082;5.832;2023-06-10T08:18:32;30.89;40.08
66506;HTU21D;53332;51.082;5.832;2023-06-10T08:20:58;30.91;40.39
66506;HTU21D;53332;51.082;5.832;2023-06-10T08:23:24;30.87;40.76
66506;HTU21D;53332;51.082;5.832;2023-06-10T08:25:49;30.82;39.11
66506;HTU21D;53332;51.082;5.832;2023-06-10T08:28:16;30.66;38.75
66506;HTU21D;53332;51.082;5.832;2023-06-10T08:30:41;30.62;38.01
66506;HTU21D;53332;51.082;5.832;2023-06-10T08:33:07;30.56;38.72
66506;HTU21D;53332;51.082;5.832;2023-06-10T08:35:33;30.37;38.73
66506;HTU21D;53332;51.082;5.832;2023-06-10T08:37:58;30.18;39.08
66506;HTU21D;53332;51.082;5.832;2023-06-10T08:40:23;30.11;39.88
66506;HTU21D;53332;51.082;5.832;2023-06-10T08:43:08;30.17;40.71
66506;HTU21D;53332;51.082;5.832;2023-06-10T08:45:36;30.24;40.65
66506;HTU21D;53332;51.082;5.832;2023-06-10T08:48:04;30.27;40.25
66506;HTU21D;53332;51.082;5.832;2023-06-10T08:50:35;30.31;40.23
66506;HTU21D;53332;51.082;5.832;2023-06-10T08:53:06;30.32;40.09
66506;HTU21D;53332;51.082;5.832;2023-06-10T08:55:42;30.34;39.78
66506;HTU21D;53332;51.082;5.832;2023-06-10T08:58:07;30.42;40.22
66506;HTU21D;53332;51.082;5.832;2023-06-10T09:00:34;30.54;40.19
66506;HTU21D;53332;51.082;5.832;2023-06-10T09:03:01;30.59;40.65
66506;HTU21D;53332;51.082;5.832;2023-06-10T09:05:29;30.66;40.29
66506;HTU21D;53332;51.082;5.832;2023-06-10T09:07:56;30.71;39.54
66506;HTU21D;53332;51.082;5.832;2023-06-10T09:10:29;30.78;39.30
66506;HTU21D;53332;51.082;5.832;2023-06-10T09:12:55;30.75;39.37
66506;HTU21D;53332;51.082;5.832;2023-06-10T09:15:22;30.68;39.48
66506;HTU21D;53332;51.082;5.832;2023-06-10T09:17:47;30.71;39.60
66506;HTU21D;53332;51.082;5.832;2023-06-10T09:20:13;30.81;39.60
66506;HTU21D;53332;51.082;5.832;2023-06-10T09:22:38;30.94;39.08
66506;HTU21D;53332;51.082;5.832;2023-06-10T09:25:10;30.96;37.68
66506;HTU21D;53332;51.082;5.832;2023-06-10T09:27:50;30.97;38.21
66506;HTU21D;53332;51.082;5.832;2023-06-10T09:30:26;30.99;37.66
66506;HTU21D;53332;51.082;5.832;2023-06-10T09:32:57;31.05;37.79
66506;HTU21D;53332;51.082;5.832;2023-06-10T09:35:28;31.01;37.21
66506;HTU21D;53332;51.082;5.832;2023-06-10T09:37:56;31.00;37.27
66506;HTU21D;53332;51.082;5.832;2023-06-10T09:40:22;31.04;37.87
66506;HTU21D;53332;51.082;5.832;2023-06-10T09:42:54;31.02;37.67
66506;HTU21D;53332;51.082;5.832;2023-06-10T09:45:21;31.09;38.54
66506;HTU21D;53332;51.082;5.832;2023-06-10T09:47:47;31.12;37.54
66506;HTU21D;53332;51.082;5.832;2023-06-10T09:50:19;31.07;37.98
66506;HTU21D;53332;51.082;5.832;2023-06-10T09:52:51;30.92;37.27
66506;HTU21D;53332;51.082;5.832;2023-06-10T09:55:17;30.97;37.26
66506;HTU21D;53332;51.082;5.832;2023-06-10T09:57:43;30.98;37.16
66506;HTU21D;53332;51.082;5.832;2023-06-10T10:00:14;31.01;37.66
66506;HTU21D;53332;51.082;5.832;2023-06-10T10:02:51;30.91;37.56
66506;HTU21D;53332;51.082;5.832;2023-06-10T10:05:19;30.96;37.25
66506;HTU21D;53332;51.082;5.832;2023-06-10T10:07:45;30.93;37.46
66506;HTU21D;53332;51.082;5.832;2023-06-10T10:10:12;30.99;37.33
66506;HTU21D;53332;51.082;5.832;2023-06-10T10:12:39;31.16;37.37
66506;HTU21D;53332;51.082;5.832;2023-06-10T10:15:07;31.25;37.48
66506;HTU21D;53332;51.082;5.832;2023-06-10T10:17:40;31.33;37.31
66506;HTU21D;53332;51.082;5.832;2023-06-10T10:20:13;31.28;37.44
66506;HTU21D;53332;51.082;5.832;2023-06-10T10:22:43;31.31;36.62
66506;HTU21D;53332;51.082;5.832;2023-06-10T10:25:17;31.41;37.53
66506;HTU21D;53332;51.082;5.832;2023-06-10T10:27:57;31.55;37.54
66506;HTU21D;53332;51.082;5.832;2023-06-10T10:30:24;31.71;37.45
66506;HTU21D;53332;51.082;5.832;2023-06-10T10:33:00;31.81;36.44
66506;HTU21D;53332;51.082;5.832;2023-06-10T10:35:33;31.73;36.32
66506;HTU21D;53332;51.082;5.832;2023-06-10T10:37:58;31.60;36.93
66506;HTU21D;53332;51.082;5.832;2023-06-10T10:40:26;31.68;36.69
66506;HTU21D;53332;51.082;5.832;2023-06-10T10:42:56;31.78;36.30
66506;HTU21D;53332;51.082;5.832;2023-06-10T10:45:23;31.75;36.24
66506;HTU21D;53332;51.082;5.832;2023-06-10T10:47:53;31.50;35.50
66506;HTU21D;53332;51.082;5.832;2023-06-10T10:50:21;31.26;36.22
66506;HTU21D;53332;51.082;5.832;2023-06-10T10:52:53;31.25;36.05
66506;HTU21D;53332;51.082;5.832;2023-06-10T10:55:19;31.24;36.24
66506;HTU21D;53332;51.082;5.832;2023-06-10T10:57:57;31.22;36.26
66506;HTU21D;53332;51.082;5.832;2023-06-10T11:00:33;31.33;36.21
66506;HTU21D;53332;51.082;5.832;2023-06-10T11:03:13;31.34;35.36
66506;HTU21D;53332;51.082;5.832;2023-06-10T11:05:44;31.40;36.25
66506;HTU21D;53332;51.082;5.832;2023-06-10T11:10:54;31.26;35.37
66506;HTU21D;53332;51.082;5.832;2023-06-10T11:13:21;31.06;35.81
66506;HTU21D;53332;51.082;5.832;2023-06-10T11:15:52;30.97;35.53
66506;HTU21D;53332;51.082;5.832;2023-06-10T11:18:28;30.99;35.34
66506;HTU21D;53332;51.082;5.832;2023-06-10T11:21:01;31.01;35.92
66506;HTU21D;53332;51.082;5.832;2023-06-10T11:31:25;30.98;36.67
66506;HTU21D;53332;51.082;5.832;2023-06-10T11:33:56;31.13;35.74
66506;HTU21D;53332;51.082;5.832;2023-06-10T11:36:23;31.21;34.89
66506;HTU21D;53332;51.082;5.832;2023-06-10T11:38:50;31.30;34.24
66506;HTU21D;53332;51.082;5.832;2023-06-10T11:41:17;31.40;33.60
66506;HTU21D;53332;51.082;5.832;2023-06-10T11:43:44;31.51;34.34
66506;HTU21D;53332;51.082;5.832;2023-06-10T11:46:11;31.66;34.72
66506;HTU21D;53332;51.082;5.832;2023-06-10T11:48:36;31.79;33.73
66506;HTU21D;53332;51.082;5.832;2023-06-10T11:51:08;31.54;30.13
66506;HTU21D;53332;51.082;5.832;2023-06-10T11:53:34;31.30;33.32
66506;HTU21D;53332;51.082;5.832;2023-06-10T11:56:00;31.11;33.09
66506;HTU21D;53332;51.082;5.832;2023-06-10T11:58:26;30.98;33.05
66506;HTU21D;53332;51.082;5.832;2023-06-10T12:00:54;30.92;34.05
66506;HTU21D;53332;51.082;5.832;2023-06-10T12:03:21;30.84;33.34
66506;HTU21D;53332;51.082;5.832;2023-06-10T12:06:13;30.72;32.67
66506;HTU21D;53332;51.082;5.832;2023-06-10T12:08:43;30.87;33.70
66506;HTU21D;53332;51.082;5.832;2023-06-10T12:11:10;31.05;34.08
66506;HTU21D;53332;51.082;5.832;2023-06-10T12:13:36;31.11;33.51
66506;HTU21D;53332;51.082;5.832;2023-06-10T12:16:11;31.25;33.62
66506;HTU21D;53332;51.082;5.832;2023-06-10T12:18:37;31.15;32.66
66506;HTU21D;53332;51.082;5.832;2023-06-10T12:21:02;30.95;30.23
66506;HTU21D;53332;51.082;5.832;2023-06-10T12:23:29;30.91;33.04
66506;HTU21D;53332;51.082;5.832;2023-06-10T12:25:55;30.91;32.41
66506;HTU21D;53332;51.082;5.832;2023-06-10T12:28:25;30.84;33.20
66506;HTU21D;53332;51.082;5.832;2023-06-10T12:30:52;30.82;33.28
66506;HTU21D;53332;51.082;5.832;2023-06-10T12:33:30;30.68;31.07
66506;HTU21D;53332;51.082;5.832;2023-06-10T12:35:56;30.54;32.56
66506;HTU21D;53332;51.082;5.832;2023-06-10T12:38:25;30.54;32.80
66506;HTU21D;53332;51.082;5.832;2023-06-10T12:41:01;30.68;32.30
66506;HTU21D;53332;51.082;5.832;2023-06-10T12:43:28;30.89;31.84
66506;HTU21D;53332;51.082;5.832;2023-06-10T12:45:53;30.98;31.35
66506;HTU21D;53332;51.082;5.832;2023-06-10T12:48:21;31.04;32.15
66506;HTU21D;53332;51.082;5.832;2023-06-10T12:50:55;31.05;32.53
66506;HTU21D;53332;51.082;5.832;2023-06-10T12:53:22;31.06;33.92
66506;HTU21D;53332;51.082;5.832;2023-06-10T12:55:49;30.95;34.01
66506;HTU21D;53332;51.082;5.832;2023-06-10T12:58:15;31.06;34.70
66506;HTU21D;53332;51.082;5.832;2023-06-10T13:00:41;30.97;34.32
66506;HTU21D;53332;51.082;5.832;2023-06-10T13:03:08;30.94;36.11
66506;HTU21D;53332;51.082;5.832;2023-06-10T13:05:38;31.04;35.37
66506;HTU21D;53332;51.082;5.832;2023-06-10T13:08:07;31.08;35.11
66506;HTU21D;53332;51.082;5.832;2023-06-10T13:10:35;31.07;34.46
66506;HTU21D;53332;51.082;5.832;2023-06-10T13:13:02;31.00;33.34
66506;HTU21D;53332;51.082;5.832;2023-06-10T13:15:31;30.98;33.44
66506;HTU21D;53332;51.082;5.832;2023-06-10T13:17:57;31.05;32.56
66506;HTU21D;53332;51.082;5.832;2023-06-10T13:20:23;30.98;34.26
66506;HTU21D;53332;51.082;5.832;2023-06-10T13:22:49;30.67;34.74
66506;HTU21D;53332;51.082;5.832;2023-06-10T13:25:15;30.39;35.93
66506;HTU21D;53332;51.082;5.832;2023-06-10T13:27:40;30.18;36.08
66506;HTU21D;53332;51.082;5.832;2023-06-10T13:30:08;30.18;37.49
66506;HTU21D;53332;51.082;5.832;2023-06-10T13:32:35;30.35;36.92
66506;HTU21D;53332;51.082;5.832;2023-06-10T13:35:01;30.44;36.87
66506;HTU21D;53332;51.082;5.832;2023-06-10T13:37:27;30.56;37.26
66506;HTU21D;53332;51.082;5.832;2023-06-10T13:39:52;30.78;36.06
66506;HTU21D;53332;51.082;5.832;2023-06-10T13:42:18;30.76;35.69
66506;HTU21D;53332;51.082;5.832;2023-06-10T13:44:44;30.70;36.20
66506;HTU21D;53332;51.082;5.832;2023-06-10T13:47:10;30.53;36.08
66506;HTU21D;53332;51.082;5.832;2023-06-10T13:49:35;30.40;35.95
66506;HTU21D;53332;51.082;5.832;2023-06-10T13:52:02;30.48;36.91
66506;HTU21D;53332;51.082;5.832;2023-06-10T13:54:27;30.66;35.39
66506;HTU21D;53332;51.082;5.832;2023-06-10T13:56:53;30.70;35.50
66506;HTU21D;53332;51.082;5.832;2023-06-10T13:59:19;30.84;37.04
66506;HTU21D;53332;51.082;5.832;2023-06-10T14:01:45;30.99;36.06
66506;HTU21D;53332;51.082;5.832;2023-06-10T14:04:11;31.01;35.85
66506;HTU21D;53332;51.082;5.832;2023-06-10T14:06:37;31.08;36.01
66506;HTU21D;53332;51.082;5.832;2023-06-10T14:09:03;31.28;35.85
66506;HTU21D;53332;51.082;5.832;2023-06-10T14:11:29;31.45;34.93
66506;HTU21D;53332;51.082;5.832;2023-06-10T14:13:55;31.51;34.38
66506;HTU21D;53332;51.082;5.832;2023-06-10T14:16:27;31.66;34.68
66506;HTU21D;53332;51.082;5.832;2023-06-10T14:18:52;31.73;33.41
66506;HTU21D;53332;51.082;5.832;2023-06-10T14:21:30;31.80;33.27
66506;HTU21D;53332;51.082;5.832;2023-06-10T14:23:55;31.83;33.05
66506;HTU21D;53332;51.082;5.832;2023-06-10T14:26:21;31.60;34.11
66506;HTU21D;53332;51.082;5.832;2023-06-10T14:28:50;31.28;34.77
66506;HTU21D;53332;51.082;5.832;2023-06-10T14:31:16;31.07;35.10
66506;HTU21D;53332;51.082;5.832;2023-06-10T14:33:41;30.92;36.18
66506;HTU21D;53332;51.082;5.832;2023-06-10T14:36:09;30.80;36.27
66506;HTU21D;53332;51.082;5.832;2023-06-10T14:38:35;30.64;36.00
66506;HTU21D;53332;51.082;5.832;2023-06-10T14:41:00;30.50;36.02
66506;HTU21D;53332;51.082;5.832;2023-06-10T14:43:26;30.36;35.47
66506;HTU21D;53332;51.082;5.832;2023-06-10T14:45:51;30.27;35.89
66506;HTU21D;53332;51.082;5.832;2023-06-10T14:48:17;30.27;35.92
66506;HTU21D;53332;51.082;5.832;2023-06-10T14:50:43;30.36;35.13
66506;HTU21D;53332;51.082;5.832;2023-06-10T14:53:12;30.45;35.76
66506;HTU21D;53332;51.082;5.832;2023-06-10T14:55:37;30.41;36.05
66506;HTU21D;53332;51.082;5.832;2023-06-10T14:58:03;30.41;36.66
66506;HTU21D;53332;51.082;5.832;2023-06-10T15:00:28;30.49;37.89
66506;HTU21D;53332;51.082;5.832;2023-06-10T15:02:54;30.57;36.71
66506;HTU21D;53332;51.082;5.832;2023-06-10T15:05:21;30.70;37.03
66506;HTU21D;53332;51.082;5.832;2023-06-10T15:07:46;30.74;37.11
66506;HTU21D;53332;51.082;5.832;2023-06-10T15:10:12;30.63;37.51
66506;HTU21D;53332;51.082;5.832;2023-06-10T15:12:38;30.65;37.82
66506;HTU21D;53332;51.082;5.832;2023-06-10T15:15:03;30.69;37.50
66506;HTU21D;53332;51.082;5.832;2023-06-10T15:17:29;30.70;36.92
66506;HTU21D;53332;51.082;5.832;2023-06-10T15:19:55;30.80;37.04
66506;HTU21D;53332;51.082;5.832;2023-06-10T15:22:21;30.94;36.75
66506;HTU21D;53332;51.082;5.832;2023-06-10T15:24:47;31.06;36.45
66506;HTU21D;53332;51.082;5.832;2023-06-10T15:27:12;31.14;36.28
66506;HTU21D;53332;51.082;5.832;2023-06-10T15:29:38;31.19;36.22
66506;HTU21D;53332;51.082;5.832;2023-06-10T15:32:04;31.25;36.40
66506;HTU21D;53332;51.082;5.832;2023-06-10T15:34:30;31.36;35.88
66506;HTU21D;53332;51.082;5.832;2023-06-10T15:36:55;31.36;34.79
66506;HTU21D;53332;51.082;5.832;2023-06-10T15:39:21;31.38;34.99
66506;HTU21D;53332;51.082;5.832;2023-06-10T15:41:46;31.48;36.38
66506;HTU21D;53332;51.082;5.832;2023-06-10T15:44:12;31.58;35.46
66506;HTU21D;53332;51.082;5.832;2023-06-10T15:46:37;31.64;34.76
66506;HTU21D;53332;51.082;5.832;2023-06-10T15:49:03;31.65;34.55
66506;HTU21D;53332;51.082;5.832;2023-06-10T15:51:29;31.65;34.46
66506;HTU21D;53332;51.082;5.832;2023-06-10T15:53:55;31.66;34.55
66506;HTU21D;53332;51.082;5.832;2023-06-10T15:56:21;31.59;33.97
66506;HTU21D;53332;51.082;5.832;2023-06-10T15:58:48;31.53;33.38
66506;HTU21D;53332;51.082;5.832;2023-06-10T16:01:13;31.49;33.76
66506;HTU21D;53332;51.082;5.832;2023-06-10T16:03:40;31.50;33.73
66506;HTU21D;53332;51.082;5.832;2023-06-10T16:06:07;31.52;34.15
66506;HTU21D;53332;51.082;5.832;2023-06-10T16:08:33;31.56;33.89
66506;HTU21D;53332;51.082;5.832;2023-06-10T16:10:58;31.52;33.65
66506;HTU21D;53332;51.082;5.832;2023-06-10T16:13:24;31.56;34.53
66506;HTU21D;53332;51.082;5.832;2023-06-10T16:15:50;31.59;34.67
66506;HTU21D;53332;51.082;5.832;2023-06-10T16:18:15;31.66;34.60
66506;HTU21D;53332;51.082;5.832;2023-06-10T16:20:41;31.73;35.15
66506;HTU21D;53332;51.082;5.832;2023-06-10T16:23:06;31.74;35.37
66506;HTU21D;53332;51.082;5.832;2023-06-10T16:25:32;31.74;34.18
66506;HTU21D;53332;51.082;5.832;2023-06-10T16:28:01;31.74;33.82
66506;HTU21D;53332;51.082;5.832;2023-06-10T16:30:28;31.75;33.83
66506;HTU21D;53332;51.082;5.832;2023-06-10T16:32:53;31.75;33.92
66506;HTU21D;53332;51.082;5.832;2023-06-10T16:35:19;31.72;33.92
66506;HTU21D;53332;51.082;5.832;2023-06-10T16:37:45;31.66;34.08